createdAt,value
2018-05-29T00:00:49.253Z,0
2018-05-29T00:01:49.081Z,0
2018-05-29T00:02:48.741Z,0
2018-05-29T00:03:49.275Z,0
2018-05-29T00:04:48.776Z,0
2018-05-29T00:05:49.262Z,0
2018-05-29T00:06:48.868Z,0
2018-05-29T00:07:48.507Z,0
2018-05-29T00:08:48.826Z,0
2018-05-29T00:09:48.829Z,0
2018-05-29T00:10:49.314Z,0
2018-05-29T00:11:48.507Z,0
2018-05-29T00:12:49.300Z,0
2018-05-29T00:13:49.309Z,0
2018-05-29T00:14:48.822Z,0
2018-05-29T00:15:48.570Z,0
2018-05-29T00:16:49.038Z,0
2018-05-29T00:17:49.282Z,0
2018-05-29T00:18:48.832Z,0
2018-05-29T00:19:49.605Z,0
2018-05-29T00:20:48.796Z,0
2018-05-29T00:21:49.052Z,0
2018-05-29T00:22:48.535Z,0
2018-05-29T00:23:48.798Z,0
2018-05-29T00:24:49.071Z,0
2018-05-29T00:25:48.573Z,0
2018-05-29T00:26:49.075Z,0
2018-05-29T00:27:48.557Z,0
2018-05-29T00:28:48.830Z,0
2018-05-29T00:29:49.117Z,0
2018-05-29T00:30:49.323Z,0
2018-05-29T00:31:48.836Z,0
2018-05-29T00:32:48.800Z,0
2018-05-29T00:33:48.829Z,0
2018-05-29T00:34:49.387Z,0
2018-05-29T00:35:48.564Z,0
2018-05-29T00:36:48.864Z,0
2018-05-29T00:37:48.840Z,0
2018-05-29T00:38:49.090Z,0
2018-05-29T00:39:48.569Z,0
2018-05-29T00:40:49.085Z,0
2018-05-29T00:41:48.579Z,0
2018-05-29T00:42:49.100Z,0
2018-05-29T00:43:49.096Z,0
2018-05-29T00:44:49.420Z,0
2018-05-29T00:45:49.104Z,0
2018-05-29T00:46:49.104Z,0
2018-05-29T00:47:48.594Z,0
2018-05-29T00:48:48.844Z,0
2018-05-29T00:49:48.848Z,0
2018-05-29T00:50:49.379Z,0
2018-05-29T00:51:48.628Z,0
2018-05-29T00:52:49.117Z,0
2018-05-29T00:53:49.389Z,0
2018-05-29T00:54:49.114Z,0
2018-05-29T00:55:48.597Z,0
2018-05-29T00:56:48.872Z,0
2018-05-29T00:57:49.142Z,0
2018-05-29T00:58:49.145Z,0
2018-05-29T00:59:48.377Z,0
2018-05-29T01:00:49.144Z,0
2018-05-29T01:01:49.125Z,0
2018-05-29T01:02:48.886Z,0
2018-05-29T01:03:48.875Z,0
2018-05-29T01:04:49.399Z,0
2018-05-29T01:05:49.163Z,0
2018-05-29T01:06:49.146Z,0
2018-05-29T01:07:48.634Z,0
2018-05-29T01:08:48.902Z,0
2018-05-29T01:09:49.148Z,0
2018-05-29T01:10:49.166Z,0
2018-05-29T01:11:49.176Z,0
2018-05-29T01:12:48.972Z,0
2018-05-29T01:13:49.152Z,0
2018-05-29T01:14:48.651Z,0
2018-05-29T01:15:48.659Z,0
2018-05-29T01:16:48.661Z,0
2018-05-29T01:17:49.162Z,0
2018-05-29T01:18:48.906Z,0
2018-05-29T01:19:48.649Z,0
2018-05-29T01:20:49.234Z,0
2018-05-29T01:21:48.931Z,0
2018-05-29T01:22:49.173Z,0
2018-05-29T01:23:48.937Z,0
2018-05-29T01:24:48.708Z,0
2018-05-29T01:25:48.928Z,0
2018-05-29T01:26:49.188Z,0
2018-05-29T01:27:48.674Z,0
2018-05-29T01:28:48.928Z,0
2018-05-29T01:29:48.681Z,0
2018-05-29T01:30:49.442Z,0
2018-05-29T01:31:48.938Z,0
2018-05-29T01:32:49.471Z,0
2018-05-29T01:33:49.207Z,0
2018-05-29T01:34:49.229Z,0
2018-05-29T01:35:50.004Z,0
2018-05-29T01:36:48.728Z,0
2018-05-29T01:37:48.701Z,0
2018-05-29T01:38:48.689Z,0
2018-05-29T01:39:48.689Z,0
2018-05-29T01:40:49.477Z,0
2018-05-29T01:41:49.215Z,0
2018-05-29T01:42:49.009Z,0
2018-05-29T01:43:49.630Z,0
2018-05-29T01:44:49.228Z,0
2018-05-29T01:45:49.228Z,0
2018-05-29T01:46:49.227Z,0
2018-05-29T01:47:49.247Z,0
2018-05-29T01:48:49.512Z,0
2018-05-29T01:49:49.235Z,0
2018-05-29T01:50:49.254Z,0
2018-05-29T01:51:48.712Z,0
2018-05-29T01:52:49.244Z,0
2018-05-29T01:53:48.981Z,0
2018-05-29T01:54:49.239Z,0
2018-05-29T01:55:49.358Z,0
2018-05-29T01:56:48.721Z,0
2018-05-29T01:57:48.716Z,0
2018-05-29T01:58:48.721Z,0
2018-05-29T01:59:49.040Z,0
2018-05-29T02:00:49.309Z,0
2018-05-29T02:01:49.028Z,0
2018-05-29T02:02:49.537Z,0
2018-05-29T02:03:49.261Z,0
2018-05-29T02:04:48.999Z,0
2018-05-29T02:05:48.997Z,0
2018-05-29T02:06:49.001Z,0
2018-05-29T02:07:48.998Z,0
2018-05-29T02:08:48.995Z,0
2018-05-29T02:09:48.753Z,0
2018-05-29T02:10:48.764Z,0
2018-05-29T02:11:49.279Z,0
2018-05-29T02:12:48.770Z,0
2018-05-29T02:13:49.278Z,0
2018-05-29T02:14:49.268Z,0
2018-05-29T02:15:49.274Z,0
2018-05-29T02:16:49.030Z,0
2018-05-29T02:17:49.270Z,0
2018-05-29T02:18:49.277Z,0
2018-05-29T02:19:49.289Z,0
2018-05-29T02:20:49.545Z,0
2018-05-29T02:21:49.297Z,0
2018-05-29T02:22:49.318Z,0
2018-05-29T02:23:49.559Z,0
2018-05-29T02:24:49.318Z,0
2018-05-29T02:25:49.295Z,0
2018-05-29T02:26:49.310Z,0
2018-05-29T02:27:49.567Z,0
2018-05-29T02:28:49.307Z,0
2018-05-29T02:29:49.563Z,0
2018-05-29T02:30:48.800Z,0
2018-05-29T02:31:49.575Z,0
2018-05-29T02:32:49.357Z,0
2018-05-29T02:33:49.587Z,0
2018-05-29T02:34:49.330Z,0
2018-05-29T02:35:49.666Z,0
2018-05-29T02:36:48.786Z,0
2018-05-29T02:37:49.325Z,0
2018-05-29T02:38:49.578Z,0
2018-05-29T02:39:49.044Z,0
2018-05-29T02:40:49.589Z,0
2018-05-29T02:41:49.603Z,0
2018-05-29T02:42:49.074Z,0
2018-05-29T02:43:48.895Z,0
2018-05-29T02:44:49.071Z,0
2018-05-29T02:45:49.616Z,0
2018-05-29T02:46:49.617Z,0
2018-05-29T02:47:49.075Z,0
2018-05-29T02:48:49.352Z,0
2018-05-29T02:49:49.332Z,0
2018-05-29T02:50:49.347Z,0
2018-05-29T02:51:49.340Z,0
2018-05-29T02:52:49.618Z,0
2018-05-29T02:53:49.601Z,0
2018-05-29T02:54:49.088Z,0
2018-05-29T02:55:49.082Z,0
2018-05-29T02:56:49.359Z,0
2018-05-29T02:57:49.617Z,0
2018-05-29T02:58:49.366Z,0
2018-05-29T02:59:49.460Z,0
2018-05-29T03:00:50.348Z,0
2018-05-29T03:01:49.096Z,0
2018-05-29T03:02:49.366Z,0
2018-05-29T03:03:49.614Z,0
2018-05-29T03:04:49.099Z,0
2018-05-29T03:05:49.094Z,0
2018-05-29T03:06:49.098Z,0
2018-05-29T03:07:49.140Z,0
2018-05-29T03:08:49.100Z,0
2018-05-29T03:09:49.651Z,0
2018-05-29T03:10:49.656Z,0
2018-05-29T03:11:49.377Z,0
2018-05-29T03:12:49.645Z,5
2018-05-29T03:13:49.377Z,5
2018-05-29T03:14:49.127Z,5
2018-05-29T03:15:49.125Z,5
2018-05-29T03:16:49.411Z,5
2018-05-29T03:17:49.662Z,5
2018-05-29T03:18:48.872Z,5
2018-05-29T03:19:49.143Z,5
2018-05-29T03:20:49.423Z,10
2018-05-29T03:21:49.394Z,10
2018-05-29T03:22:49.397Z,10
2018-05-29T03:23:48.881Z,10
2018-05-29T03:24:49.123Z,10
2018-05-29T03:25:49.397Z,10
2018-05-29T03:26:49.395Z,10
2018-05-29T03:27:49.399Z,15
2018-05-29T03:28:49.673Z,15
2018-05-29T03:29:49.169Z,15
2018-05-29T03:30:49.399Z,15
2018-05-29T03:31:49.844Z,15
2018-05-29T03:32:49.404Z,15
2018-05-29T03:33:49.156Z,15
2018-05-29T03:34:49.429Z,20
2018-05-29T03:35:49.411Z,20
2018-05-29T03:36:49.156Z,20
2018-05-29T03:37:49.668Z,20
2018-05-29T03:38:49.677Z,20
2018-05-29T03:39:49.681Z,20
2018-05-29T03:40:49.679Z,25
2018-05-29T03:41:49.678Z,25
2018-05-29T03:42:49.176Z,25
2018-05-29T03:43:50.042Z,30
2018-05-29T03:44:49.451Z,30
2018-05-29T03:45:49.436Z,35
2018-05-29T03:46:49.683Z,35
2018-05-29T03:47:49.158Z,35
2018-05-29T03:48:49.172Z,40
2018-05-29T03:49:49.704Z,40
2018-05-29T03:50:49.453Z,40
2018-05-29T03:51:49.460Z,45
2018-05-29T03:52:49.438Z,45
2018-05-29T03:53:49.212Z,45
2018-05-29T03:54:49.709Z,45
2018-05-29T03:55:49.218Z,50
2018-05-29T03:56:49.733Z,55
2018-05-29T03:57:49.192Z,60
2018-05-29T03:58:49.468Z,70
2018-05-29T03:59:49.740Z,75
2018-05-29T04:00:49.735Z,80
2018-05-29T04:01:49.525Z,80
2018-05-29T04:02:49.226Z,85
2018-05-29T04:03:49.483Z,90
2018-05-29T04:04:49.475Z,90
2018-05-29T04:05:49.227Z,95
2018-05-29T04:06:49.731Z,95
2018-05-29T04:07:49.481Z,95
2018-05-29T04:08:49.748Z,90
2018-05-29T04:09:49.511Z,115
2018-05-29T04:10:49.780Z,115
2018-05-29T04:11:49.256Z,115
2018-05-29T04:12:49.490Z,115
2018-05-29T04:13:49.228Z,115
2018-05-29T04:14:49.491Z,120
2018-05-29T04:15:49.357Z,135
2018-05-29T04:16:49.526Z,140
2018-05-29T04:17:49.512Z,145
2018-05-29T04:18:49.785Z,135
2018-05-29T04:19:49.789Z,135
2018-05-29T04:20:49.533Z,140
2018-05-29T04:21:49.517Z,145
2018-05-29T04:22:49.260Z,145
2018-05-29T04:23:49.538Z,125
2018-05-29T04:24:49.790Z,115
2018-05-29T04:25:49.262Z,100
2018-05-29T04:26:49.276Z,85
2018-05-29T04:27:49.281Z,80
2018-05-29T04:28:49.290Z,80
2018-05-29T04:29:49.550Z,75
2018-05-29T04:30:49.552Z,75
2018-05-29T04:31:49.051Z,75
2018-05-29T04:32:49.596Z,75
2018-05-29T04:33:49.311Z,75
2018-05-29T04:34:49.314Z,75
2018-05-29T04:35:49.848Z,75
2018-05-29T04:36:49.317Z,80
2018-05-29T04:37:49.833Z,80
2018-05-29T04:38:49.853Z,80
2018-05-29T04:39:49.851Z,80
2018-05-29T04:40:49.608Z,80
2018-05-29T04:41:49.936Z,80
2018-05-29T04:42:49.861Z,80
2018-05-29T04:43:50.081Z,85
2018-05-29T04:44:49.334Z,90
2018-05-29T04:45:49.620Z,100
2018-05-29T04:46:49.628Z,100
2018-05-29T04:47:49.372Z,100
2018-05-29T04:48:49.368Z,85
2018-05-29T04:49:49.481Z,85
2018-05-29T04:50:49.896Z,85
2018-05-29T04:51:49.105Z,85
2018-05-29T04:52:49.624Z,90
2018-05-29T04:53:49.672Z,90
2018-05-29T04:54:49.637Z,90
2018-05-29T04:55:49.897Z,95
2018-05-29T04:56:49.997Z,95
2018-05-29T04:57:49.649Z,105
2018-05-29T04:58:49.418Z,115
2018-05-29T04:59:49.934Z,125
2018-05-29T05:00:49.150Z,135
2018-05-29T05:01:49.191Z,140
2018-05-29T05:02:49.930Z,145
2018-05-29T05:03:49.448Z,140
2018-05-29T05:04:49.667Z,130
2018-05-29T05:05:49.413Z,130
2018-05-29T05:06:49.682Z,135
2018-05-29T05:07:49.695Z,140
2018-05-29T05:08:49.442Z,125
2018-05-29T05:09:49.697Z,130
2018-05-29T05:10:49.699Z,130
2018-05-29T05:11:49.708Z,135
2018-05-29T05:12:49.993Z,145
2018-05-29T05:13:49.439Z,155
2018-05-29T05:14:49.697Z,155
2018-05-29T05:15:49.449Z,160
2018-05-29T05:16:49.453Z,165
2018-05-29T05:17:49.704Z,160
2018-05-29T05:18:49.717Z,155
2018-05-29T05:19:49.757Z,145
2018-05-29T05:20:49.734Z,140
2018-05-29T05:21:49.211Z,140
2018-05-29T05:22:49.208Z,140
2018-05-29T05:23:49.807Z,145
2018-05-29T05:24:49.737Z,150
2018-05-29T05:25:49.483Z,155
2018-05-29T05:26:49.780Z,160
2018-05-29T05:27:50.003Z,160
2018-05-29T05:28:49.745Z,160
2018-05-29T05:29:49.746Z,165
2018-05-29T05:30:48.978Z,175
2018-05-29T05:31:50.714Z,185
2018-05-29T05:32:49.256Z,190
2018-05-29T05:33:50.051Z,190
2018-05-29T05:34:49.253Z,190
2018-05-29T05:35:49.517Z,190
2018-05-29T05:36:49.260Z,190
2018-05-29T05:37:49.008Z,190
2018-05-29T05:38:49.807Z,190
2018-05-29T05:39:50.049Z,185
2018-05-29T05:40:49.636Z,185
2018-05-29T05:41:49.560Z,185
2018-05-29T05:42:49.568Z,175
2018-05-29T05:43:49.362Z,170
2018-05-29T05:44:49.839Z,170
2018-05-29T05:45:49.323Z,170
2018-05-29T05:46:49.620Z,160
2018-05-29T05:47:49.821Z,160
2018-05-29T05:48:49.817Z,150
2018-05-29T05:49:49.568Z,165
2018-05-29T05:50:49.579Z,160
2018-05-29T05:51:49.598Z,165
2018-05-29T05:52:49.423Z,165
2018-05-29T05:53:50.146Z,180
2018-05-29T05:54:49.601Z,260
2018-05-29T05:55:50.127Z,250
2018-05-29T05:56:49.599Z,235
2018-05-29T05:57:49.877Z,235
2018-05-29T05:58:50.129Z,235
2018-05-29T05:59:49.602Z,245
2018-05-29T06:00:49.882Z,255
2018-05-29T06:01:53.633Z,240
2018-05-29T06:02:49.636Z,260
2018-05-29T06:03:50.178Z,310
2018-05-29T06:04:50.171Z,335
2018-05-29T06:05:49.914Z,355
2018-05-29T06:06:49.381Z,375
2018-05-29T06:07:49.672Z,380
2018-05-29T06:08:49.385Z,390
2018-05-29T06:09:50.190Z,385
2018-05-29T06:10:49.147Z,385
2018-05-29T06:11:49.428Z,395
2018-05-29T06:12:50.196Z,400
2018-05-29T06:23:23.823Z,400
2018-05-29T06:24:23.648Z,420
2018-05-29T06:25:23.567Z,410
2018-05-29T06:26:23.555Z,415
2018-05-29T06:27:23.584Z,410
2018-05-29T06:28:23.327Z,420
2018-05-29T06:29:23.338Z,415
2018-05-29T06:30:23.837Z,420
2018-05-29T06:31:23.331Z,425
2018-05-29T06:32:23.601Z,435
2018-05-29T06:33:23.887Z,440
2018-05-29T06:34:23.365Z,440
2018-05-29T06:35:23.619Z,420
2018-05-29T06:36:23.643Z,420
2018-05-29T06:37:23.907Z,420
2018-05-29T06:38:23.747Z,415
2018-05-29T06:39:23.675Z,415
2018-05-29T06:40:23.693Z,405
2018-05-29T06:41:23.418Z,395
2018-05-29T06:42:23.470Z,390
2018-05-29T06:43:23.168Z,385
2018-05-29T06:44:23.696Z,380
2018-05-29T06:45:23.722Z,380
2018-05-29T06:46:23.734Z,385
2018-05-29T06:47:23.221Z,385
2018-05-29T06:48:23.482Z,385
2018-05-29T06:49:23.743Z,380
2018-05-29T06:50:23.488Z,380
2018-05-29T06:51:23.755Z,380
2018-05-29T06:52:23.773Z,370
2018-05-29T06:53:23.251Z,345
2018-05-29T06:54:23.797Z,310
2018-05-29T06:55:23.262Z,345
2018-05-29T06:56:24.065Z,340
2018-05-29T06:57:23.537Z,370
2018-05-29T06:58:23.570Z,370
2018-05-29T06:59:23.818Z,335
2018-05-29T07:00:23.049Z,295
2018-05-29T07:01:24.102Z,330
2018-05-29T07:02:23.830Z,290
2018-05-29T07:03:23.612Z,270
2018-05-29T07:04:23.851Z,375
2018-05-29T07:05:23.866Z,295
2018-05-29T07:06:23.629Z,320
2018-05-29T07:07:23.610Z,300
2018-05-29T07:08:23.977Z,295
2018-05-29T07:09:23.895Z,295
2018-05-29T07:10:23.635Z,300
2018-05-29T07:11:23.663Z,285
2018-05-29T07:12:23.678Z,260
2018-05-29T07:13:23.938Z,260
2018-05-29T07:14:23.399Z,280
2018-05-29T07:15:24.211Z,300
2018-05-29T07:16:24.206Z,305
2018-05-29T07:17:23.700Z,295
2018-05-29T07:18:23.976Z,280
2018-05-29T07:19:24.246Z,290
2018-05-29T07:20:23.452Z,315
2018-05-29T07:21:23.986Z,305
2018-05-29T07:22:23.733Z,290
2018-05-29T07:23:23.493Z,305
2018-05-29T07:24:23.495Z,315
2018-05-29T07:25:23.762Z,305
2018-05-29T07:26:23.507Z,290
2018-05-29T07:27:24.549Z,285
2018-05-29T07:28:23.518Z,295
2018-05-29T07:29:23.540Z,300
2018-05-29T07:30:24.064Z,320
2018-05-29T07:31:23.869Z,315
2018-05-29T07:32:23.790Z,310
2018-05-29T07:33:24.324Z,325
2018-05-29T07:34:23.804Z,325
2018-05-29T07:35:23.577Z,330
2018-05-29T07:36:24.349Z,330
2018-05-29T07:37:23.823Z,345
2018-05-29T07:38:23.927Z,360
2018-05-29T07:39:23.838Z,390
2018-05-29T07:40:23.844Z,400
2018-05-29T07:41:24.122Z,405
2018-05-29T07:42:24.373Z,425
2018-05-29T07:43:24.144Z,435
2018-05-29T07:44:24.135Z,410
2018-05-29T07:45:24.368Z,405
2018-05-29T07:46:23.677Z,400
2018-05-29T07:47:24.165Z,385
2018-05-29T07:48:23.682Z,375
2018-05-29T07:49:23.906Z,375
2018-05-29T07:50:24.177Z,365
2018-05-29T07:51:23.960Z,360
2018-05-29T07:52:24.217Z,360
2018-05-29T07:53:24.534Z,355
2018-05-29T07:54:24.190Z,345
2018-05-29T07:55:24.264Z,345
2018-05-29T07:56:24.213Z,345
2018-05-29T07:57:23.966Z,350
2018-05-29T07:58:24.252Z,340
2018-05-29T07:59:24.230Z,325
2018-05-29T08:00:23.977Z,315
2018-05-29T08:01:24.252Z,315
2018-05-29T08:02:24.279Z,310
2018-05-29T08:03:23.750Z,300
2018-05-29T08:04:24.272Z,300
2018-05-29T08:05:24.272Z,290
2018-05-29T08:06:23.865Z,270
2018-05-29T08:07:24.047Z,265
2018-05-29T08:08:24.081Z,270
2018-05-29T08:09:24.280Z,265
2018-05-29T08:10:24.292Z,275
2018-05-29T08:11:24.299Z,270
2018-05-29T08:12:24.563Z,275
2018-05-29T08:13:24.333Z,285
2018-05-29T08:14:24.064Z,280
2018-05-29T08:15:24.325Z,285
2018-05-29T08:16:24.647Z,285
2018-05-29T08:17:24.594Z,275
2018-05-29T08:18:24.086Z,265
2018-05-29T08:19:24.346Z,260
2018-05-29T08:20:24.623Z,250
2018-05-29T08:21:24.365Z,245
2018-05-29T08:22:24.363Z,235
2018-05-29T08:23:24.133Z,230
2018-05-29T08:24:23.866Z,220
2018-05-29T08:25:24.393Z,220
2018-05-29T08:26:24.720Z,210
2018-05-29T08:27:24.403Z,200
2018-05-29T08:28:24.416Z,190
2018-05-29T08:29:24.676Z,185
2018-05-29T08:30:24.410Z,185
2018-05-29T08:31:24.497Z,190
2018-05-29T08:32:24.683Z,195
2018-05-29T08:33:24.436Z,195
2018-05-29T08:34:24.161Z,200
2018-05-29T08:35:24.168Z,210
2018-05-29T08:36:24.203Z,220
2018-05-29T08:37:24.718Z,230
2018-05-29T08:38:24.514Z,235
2018-05-29T08:39:24.553Z,250
2018-05-29T08:40:23.958Z,265
2018-05-29T08:41:24.208Z,275
2018-05-29T08:42:23.977Z,285
2018-05-29T08:43:24.231Z,300
2018-05-29T08:44:24.496Z,310
2018-05-29T08:45:24.230Z,325
2018-05-29T08:46:24.419Z,335
2018-05-29T08:47:24.255Z,350
2018-05-29T08:48:24.260Z,365
2018-05-29T08:49:24.539Z,390
2018-05-29T08:50:24.254Z,405
2018-05-29T08:51:24.272Z,410
2018-05-29T08:52:24.314Z,410
2018-05-29T08:53:24.535Z,415
2018-05-29T08:54:24.306Z,425
2018-05-29T08:55:24.036Z,425
2018-05-29T08:56:24.544Z,435
2018-05-29T08:57:24.748Z,425
2018-05-29T08:58:24.557Z,425
2018-05-29T08:59:24.836Z,425
2018-05-29T09:00:24.834Z,425
2018-05-29T09:01:24.052Z,430
2018-05-29T09:02:24.579Z,435
2018-05-29T09:03:25.129Z,415
2018-05-29T09:04:25.218Z,410
2018-05-29T09:05:24.596Z,410
2018-05-29T09:06:24.340Z,425
2018-05-29T09:07:24.637Z,425
2018-05-29T09:08:24.933Z,420
2018-05-29T09:09:24.371Z,430
2018-05-29T09:10:24.364Z,435
2018-05-29T09:11:24.898Z,430
2018-05-29T09:12:24.371Z,425
2018-05-29T09:13:24.400Z,425
2018-05-29T09:14:24.649Z,430
2018-05-29T09:15:24.154Z,425
2018-05-29T09:16:24.670Z,425
2018-05-29T09:17:24.674Z,425
2018-05-29T09:18:24.711Z,430
2018-05-29T09:19:24.705Z,435
2018-05-29T09:20:24.686Z,435
2018-05-29T09:21:24.457Z,430
2018-05-29T09:22:24.745Z,420
2018-05-29T09:23:24.452Z,420
2018-05-29T09:24:24.463Z,420
2018-05-29T09:25:24.721Z,430
2018-05-29T09:26:25.008Z,410
2018-05-29T09:27:24.478Z,410
2018-05-29T09:28:24.470Z,415
2018-05-29T09:29:24.742Z,425
2018-05-29T09:30:24.491Z,435
2018-05-29T09:31:24.495Z,430
2018-05-29T09:32:24.498Z,425
2018-05-29T09:33:24.495Z,420
2018-05-29T09:34:24.250Z,415
2018-05-29T09:35:24.885Z,410
2018-05-29T09:36:24.515Z,405
2018-05-29T09:37:25.118Z,400
2018-05-29T09:38:25.043Z,400
2018-05-29T09:39:24.525Z,410
2018-05-29T09:40:25.333Z,400
2018-05-29T09:41:24.561Z,410
2018-05-29T09:42:24.318Z,410
2018-05-29T09:43:24.836Z,415
2018-05-29T09:44:24.871Z,405
2018-05-29T09:45:24.836Z,420
2018-05-29T09:46:24.585Z,455
2018-05-29T09:47:24.321Z,435
2018-05-29T09:48:25.180Z,480
2018-05-29T09:49:24.349Z,475
2018-05-29T09:50:24.609Z,485
2018-05-29T09:51:24.629Z,505
2018-05-29T09:52:24.344Z,480
2018-05-29T09:53:24.941Z,515
2018-05-29T09:54:24.871Z,500
2018-05-29T09:55:24.882Z,515
2018-05-29T09:56:24.899Z,455
2018-05-29T09:57:25.157Z,445
2018-05-29T09:58:24.904Z,445
2018-05-29T09:59:24.908Z,505
2018-05-29T10:00:24.692Z,435
2018-05-29T10:01:24.691Z,430
2018-05-29T10:02:24.939Z,435
2018-05-29T10:03:24.926Z,510
2018-05-29T10:04:25.216Z,515
2018-05-29T10:05:25.228Z,515
2018-05-29T10:06:24.728Z,495
2018-05-29T10:07:25.192Z,455
2018-05-29T10:08:25.521Z,430
2018-05-29T10:09:24.974Z,420
2018-05-29T10:10:24.743Z,390
2018-05-29T10:11:25.302Z,380
2018-05-29T10:12:24.523Z,360
2018-05-29T10:13:24.254Z,345
2018-05-29T10:14:24.783Z,335
2018-05-29T10:15:25.029Z,335
2018-05-29T10:16:24.258Z,335
2018-05-29T10:17:24.775Z,330
2018-05-29T10:18:25.016Z,335
2018-05-29T10:19:25.214Z,335
2018-05-29T10:20:24.539Z,340
2018-05-29T10:21:25.050Z,340
2018-05-29T10:22:24.795Z,360
2018-05-29T10:53:47.927Z,405
2018-05-29T10:54:47.423Z,415
2018-05-29T10:55:47.687Z,415
2018-05-29T10:56:47.661Z,415
2018-05-29T10:57:47.945Z,420
2018-05-29T10:58:47.959Z,420
2018-05-29T10:59:47.681Z,415
2018-05-29T11:00:47.684Z,415
2018-05-29T11:01:47.428Z,410
2018-05-29T11:02:47.692Z,410
2018-05-29T11:03:47.436Z,410
2018-05-29T11:04:47.977Z,410
2018-05-29T11:05:47.702Z,425
2018-05-29T11:06:47.469Z,435
2018-05-29T11:07:47.710Z,450
2018-05-29T11:08:47.723Z,445
2018-05-29T11:09:47.468Z,435
2018-05-29T11:10:47.737Z,435
2018-05-29T11:11:48.012Z,445
2018-05-29T11:12:48.041Z,445
2018-05-29T11:13:47.751Z,440
2018-05-29T11:14:47.495Z,445
2018-05-29T11:15:47.764Z,445
2018-05-29T11:16:48.020Z,445
2018-05-29T11:17:47.543Z,445
2018-05-29T11:18:47.773Z,440
2018-05-29T11:19:47.553Z,440
2018-05-29T11:20:47.787Z,445
2018-05-29T11:21:47.571Z,450
2018-05-29T11:22:47.817Z,445
2018-05-29T11:23:47.878Z,440
2018-05-29T11:24:47.847Z,435
2018-05-29T11:25:47.573Z,425
2018-05-29T11:26:48.163Z,415
2018-05-29T11:27:48.098Z,410
2018-05-29T11:28:47.861Z,410
2018-05-29T11:29:47.576Z,410
2018-05-29T11:30:47.589Z,415
2018-05-29T11:31:48.129Z,420
2018-05-29T11:32:47.851Z,435
2018-05-29T11:33:47.878Z,445
2018-05-29T11:34:47.613Z,450
2018-05-29T11:35:48.139Z,460
2018-05-29T11:36:47.644Z,465
2018-05-29T11:37:47.641Z,475
2018-05-29T11:38:47.908Z,475
2018-05-29T11:39:47.924Z,505
2018-05-29T11:40:47.918Z,510
2018-05-29T11:41:47.668Z,550
2018-05-29T11:42:47.932Z,525
2018-05-29T11:43:47.927Z,525
2018-05-29T11:44:48.205Z,510
2018-05-29T11:45:47.951Z,500
2018-05-29T11:46:48.227Z,485
2018-05-29T11:47:48.232Z,495
2018-05-29T11:48:47.260Z,475
2018-05-29T11:49:48.233Z,490
2018-05-29T11:50:47.701Z,430
2018-05-29T11:51:47.963Z,425
2018-05-29T11:52:47.738Z,440
2018-05-29T11:53:47.734Z,395
2018-05-29T11:54:47.754Z,390
2018-05-29T11:55:48.006Z,395
2018-05-29T11:56:48.005Z,420
2018-05-29T11:57:47.835Z,430
2018-05-29T11:58:48.026Z,435
2018-05-29T11:59:47.791Z,430
2018-05-29T12:00:48.455Z,425
2018-05-29T12:01:48.308Z,420
2018-05-29T12:02:48.046Z,400
2018-05-29T12:03:47.838Z,385
2018-05-29T12:04:48.083Z,370
2018-05-29T12:05:47.794Z,365
2018-05-29T12:06:48.058Z,365
2018-05-29T12:07:47.892Z,370
2018-05-29T12:08:48.171Z,375
2018-05-29T12:09:47.583Z,370
2018-05-29T12:10:47.571Z,380
2018-05-29T12:11:47.588Z,390
2018-05-29T12:12:47.839Z,435
2018-05-29T12:13:47.865Z,435
2018-05-29T12:14:47.876Z,440
2018-05-29T12:15:47.603Z,435
2018-05-29T12:16:47.920Z,430
2018-05-29T12:17:47.614Z,425
2018-05-29T12:18:48.415Z,405
2018-05-29T12:19:48.154Z,415
2018-05-29T12:20:48.438Z,410
2018-05-29T12:21:48.449Z,375
2018-05-29T12:22:47.393Z,375
2018-05-29T12:23:47.977Z,375
2018-05-29T12:24:48.170Z,370
2018-05-29T12:25:47.925Z,370
2018-05-29T12:26:48.455Z,370
2018-05-29T12:27:48.269Z,365
2018-05-29T12:28:48.198Z,365
2018-05-29T12:29:48.207Z,370
2018-05-29T12:30:47.957Z,395
2018-05-29T12:31:47.700Z,395
2018-05-29T12:32:48.484Z,400
2018-05-29T12:33:48.004Z,390
2018-05-29T12:34:48.066Z,385
2018-05-29T12:35:48.527Z,385
2018-05-29T12:36:48.247Z,390
2018-05-29T12:37:47.737Z,385
2018-05-29T12:38:48.457Z,385
2018-05-29T12:39:48.004Z,375
2018-05-29T12:40:48.276Z,370
2018-05-29T12:41:48.025Z,370
2018-05-29T12:42:47.761Z,370
2018-05-29T12:43:48.307Z,375
2018-05-29T12:44:48.547Z,380
2018-05-29T12:45:48.053Z,360
2018-05-29T12:46:48.558Z,375
2018-05-29T12:47:47.790Z,375
2018-05-29T12:48:48.047Z,385
2018-05-29T12:49:48.599Z,380
2018-05-29T12:50:48.319Z,375
2018-05-29T12:51:48.619Z,355
2018-05-29T12:52:48.076Z,335
2018-05-29T12:53:47.882Z,315
2018-05-29T12:54:47.575Z,310
2018-05-29T12:55:48.100Z,310
2018-05-29T12:56:48.378Z,310
2018-05-29T12:57:48.370Z,335
2018-05-29T12:58:48.674Z,360
2018-05-29T12:59:47.890Z,390
2018-05-29T13:00:48.122Z,400
2018-05-29T13:01:48.391Z,410
2018-05-29T13:02:48.149Z,400
2018-05-29T13:03:48.435Z,390
2018-05-29T13:04:48.151Z,390
2018-05-29T13:05:48.416Z,390
2018-05-29T13:06:48.176Z,395
2018-05-29T13:07:48.175Z,395
2018-05-29T13:08:48.225Z,400
2018-05-29T13:09:48.451Z,405
2018-05-29T13:10:47.908Z,400
2018-05-29T13:11:48.695Z,390
2018-05-29T13:12:48.445Z,375
2018-05-29T13:13:49.298Z,370
2018-05-29T13:14:47.669Z,365
2018-05-29T13:15:48.208Z,365
2018-05-29T13:16:48.651Z,375
2018-05-29T13:17:48.210Z,410
2018-05-29T13:18:48.223Z,410
2018-05-29T13:19:48.468Z,410
2018-05-29T13:20:47.712Z,400
2018-05-29T13:21:48.496Z,385
2018-05-29T13:22:48.554Z,380
2018-05-29T13:23:48.537Z,370
2018-05-29T13:24:47.740Z,365
2018-05-29T13:25:48.278Z,355
2018-05-29T13:26:48.530Z,345
2018-05-29T13:27:48.396Z,340
2018-05-29T13:28:48.819Z,330
2018-05-29T13:29:48.293Z,315
2018-05-29T13:30:48.553Z,305
2018-05-29T13:31:48.840Z,300
2018-05-29T13:32:48.750Z,290
2018-05-29T13:33:48.570Z,285
2018-05-29T13:34:48.043Z,280
2018-05-29T13:35:48.562Z,275
2018-05-29T13:36:48.311Z,265
2018-05-29T13:37:48.049Z,245
2018-05-29T13:38:48.372Z,230
2018-05-29T13:39:48.104Z,215
2018-05-29T13:40:48.587Z,210
2018-05-29T13:41:48.642Z,215
2018-05-29T13:42:48.604Z,225
2018-05-29T13:43:48.881Z,230
2018-05-29T13:44:48.369Z,230
2018-05-29T13:45:48.640Z,225
2018-05-29T13:46:48.633Z,220
2018-05-29T13:47:48.103Z,215
2018-05-29T13:48:47.858Z,215
2018-05-29T13:49:48.410Z,215
2018-05-29T13:50:48.640Z,220
2018-05-29T13:51:48.403Z,225
2018-05-29T13:52:48.666Z,230
2018-05-29T13:53:48.448Z,235
2018-05-29T13:54:48.411Z,235
2018-05-29T13:55:48.986Z,240
2018-05-29T13:56:48.408Z,240
2018-05-29T13:57:48.709Z,240
2018-05-29T13:58:48.457Z,240
2018-05-29T13:59:48.432Z,240
2018-05-29T14:00:48.943Z,240
2018-05-29T14:01:47.944Z,235
2018-05-29T14:02:48.202Z,230
2018-05-29T14:03:48.449Z,220
2018-05-29T14:04:48.448Z,210
2018-05-29T14:05:48.437Z,205
2018-05-29T14:06:48.727Z,200
2018-05-29T14:07:48.990Z,200
2018-05-29T14:08:49.081Z,195
2018-05-29T14:09:48.490Z,185
2018-05-29T14:10:48.228Z,180
2018-05-29T14:11:48.740Z,170
2018-05-29T14:12:48.492Z,160
2018-05-29T14:13:48.504Z,150
2018-05-29T14:14:48.330Z,145
2018-05-29T14:15:48.519Z,135
2018-05-29T14:16:48.831Z,130
2018-05-29T14:17:48.512Z,120
2018-05-29T14:18:48.790Z,110
2018-05-29T14:19:48.278Z,105
2018-05-29T14:20:49.061Z,100
2018-05-29T14:21:48.542Z,95
2018-05-29T14:22:49.050Z,90
2018-05-29T14:23:49.081Z,85
2018-05-29T14:24:48.530Z,80
2018-05-29T14:25:48.828Z,75
2018-05-29T14:26:48.805Z,75
2018-05-29T14:27:49.090Z,70
2018-05-29T14:28:48.558Z,70
2018-05-29T14:29:48.602Z,70
2018-05-29T14:30:48.571Z,70
2018-05-29T14:31:48.575Z,70
2018-05-29T14:32:48.837Z,65
2018-05-29T14:33:48.578Z,65
2018-05-29T14:34:48.063Z,65
2018-05-29T14:35:49.100Z,65
2018-05-29T14:36:48.324Z,65
2018-05-29T14:37:48.645Z,65
2018-05-29T14:38:48.856Z,65
2018-05-29T14:39:48.857Z,65
2018-05-29T14:40:48.942Z,65
2018-05-29T14:41:48.624Z,65
2018-05-29T14:42:48.335Z,70
2018-05-29T14:43:49.181Z,65